createdAt,value
2017-03-31T00:00:04.391Z,64.37
2017-03-31T00:01:14.663Z,64.28
2017-03-31T00:02:24.630Z,64.47
2017-03-31T00:03:34.621Z,64.18
2017-03-31T00:04:44.588Z,64.28
2017-03-31T00:05:53.962Z,64.47
2017-03-31T00:07:03.967Z,64.18
2017-03-31T00:08:14.238Z,64.34
2017-03-31T00:09:24.506Z,64.56
2017-03-31T00:10:35.016Z,64.43
2017-03-31T00:11:44.961Z,64.53
2017-03-31T00:12:55.222Z,64.34
2017-03-31T00:14:05.507Z,64.34
2017-03-31T00:15:15.771Z,64.53
2017-03-31T00:16:26.061Z,64.15
2017-03-31T00:17:36.332Z,64.15
2017-03-31T00:18:46.303Z,64.15
2017-03-31T00:19:55.966Z,64.15
2017-03-31T00:21:06.253Z,64.25
2017-03-31T00:22:16.543Z,64.15
2017-03-31T00:23:26.820Z,64.25
2017-03-31T00:24:37.090Z,64.15
2017-03-31T00:25:47.366Z,64.34
2017-03-31T00:26:57.651Z,64.53
2017-03-31T00:28:07.922Z,64.43
2017-03-31T00:29:17.898Z,64.43
2017-03-31T00:30:28.155Z,64.25
2017-03-31T00:31:38.121Z,64.53
2017-03-31T00:32:47.806Z,64.43
2017-03-31T00:33:57.151Z,64.43
2017-03-31T00:35:07.417Z,64.34
2017-03-31T00:36:17.683Z,64.43
2017-03-31T00:37:27.642Z,64.25
2017-03-31T00:38:37.933Z,64.34
2017-03-31T00:39:47.970Z,64.25
2017-03-31T00:40:58.301Z,64.25
2017-03-31T00:42:08.317Z,64.53
2017-03-31T00:43:18.644Z,64.05
2017-03-31T00:44:28.991Z,64.15
2017-03-31T00:45:39.320Z,64.05
2017-03-31T00:46:49.653Z,64.43
2017-03-31T00:48:00.009Z,64.21
2017-03-31T00:49:10.023Z,64.31
2017-03-31T00:50:20.372Z,64.12
2017-03-31T00:51:30.714Z,64.21
2017-03-31T00:52:41.084Z,64.12
2017-03-31T00:53:51.420Z,64.21
2017-03-31T00:55:01.762Z,64.31
2017-03-31T00:56:11.779Z,64.12
2017-03-31T00:57:22.115Z,64.4
2017-03-31T00:58:32.143Z,64.31
2017-03-31T00:59:42.473Z,64.31
2017-03-31T01:00:52.821Z,64.31
2017-03-31T01:02:03.157Z,64.31
2017-03-31T01:03:13.491Z,64.21
2017-03-31T01:04:23.840Z,64.31
2017-03-31T01:05:34.163Z,64.21
2017-03-31T01:06:44.508Z,64.4
2017-03-31T01:07:54.849Z,64.31
2017-03-31T01:09:05.186Z,64.4
2017-03-31T01:10:15.525Z,64.31
2017-03-31T01:11:25.858Z,64.31
2017-03-31T01:12:36.188Z,64.31
2017-03-31T01:13:46.524Z,64.21
2017-03-31T01:14:56.859Z,64.31
2017-03-31T01:16:07.190Z,64.4
2017-03-31T01:17:17.520Z,64.31
2017-03-31T01:18:27.223Z,64.31
2017-03-31T01:19:37.558Z,64.21
2017-03-31T01:20:47.884Z,64.31
2017-03-31T01:21:57.911Z,64.31
2017-03-31T01:23:07.942Z,64.31
2017-03-31T01:24:17.954Z,64.12
2017-03-31T01:25:28.307Z,64.12
2017-03-31T01:26:38.648Z,64.02
2017-03-31T01:27:48.979Z,64.02
2017-03-31T01:28:59.322Z,64.12
2017-03-31T01:30:09.663Z,64.12
2017-03-31T01:31:19.992Z,63.92
2017-03-31T01:32:30.066Z,63.92
2017-03-31T01:33:40.401Z,64.12
2017-03-31T01:34:50.741Z,64.12
2017-03-31T01:36:01.082Z,63.92
2017-03-31T01:37:11.423Z,64.12
2017-03-31T01:38:21.451Z,64.12
2017-03-31T01:39:31.476Z,64.12
2017-03-31T01:40:41.799Z,64.28
2017-03-31T01:41:51.511Z,64.37
2017-03-31T01:43:01.531Z,64.28
2017-03-31T01:44:11.551Z,64.28
2017-03-31T01:45:21.562Z,64.28
2017-03-31T01:46:31.903Z,64.28
2017-03-31T01:47:41.917Z,64.28
2017-03-31T01:48:52.251Z,64.28
2017-03-31T01:50:02.599Z,64.28
2017-03-31T01:51:12.930Z,64.09
2017-03-31T01:52:22.958Z,64.09
2017-03-31T01:53:33.288Z,64.09
2017-03-31T01:54:43.629Z,63.89
2017-03-31T01:55:53.955Z,63.99
2017-03-31T01:57:04.293Z,64.09
2017-03-31T01:58:14.629Z,63.99
2017-03-31T01:59:25.001Z,63.99
2017-03-31T02:00:35.347Z,63.8
2017-03-31T02:01:45.689Z,63.6
2017-03-31T02:02:55.723Z,63.6
2017-03-31T02:04:06.051Z,63.8
2017-03-31T02:05:16.094Z,63.7
2017-03-31T02:06:26.118Z,63.99
2017-03-31T02:07:36.139Z,63.99
2017-03-31T02:08:46.171Z,64.09
2017-03-31T02:09:56.491Z,63.89
2017-03-31T02:11:06.847Z,63.8
2017-03-31T02:12:17.191Z,63.8
2017-03-31T02:13:27.527Z,63.7
2017-03-31T02:14:37.860Z,63.8
2017-03-31T02:15:48.216Z,63.7
2017-03-31T02:16:58.552Z,64.09
2017-03-31T02:18:08.584Z,63.8
2017-03-31T02:19:18.920Z,63.89
2017-03-31T02:20:28.940Z,63.8
2017-03-31T02:21:39.288Z,63.6
2017-03-31T02:22:49.633Z,63.99
2017-03-31T02:23:59.664Z,63.8
2017-03-31T02:25:09.985Z,63.6
2017-03-31T02:26:20.309Z,63.7
2017-03-31T02:27:30.663Z,64.18
2017-03-31T02:28:40.697Z,64.09
2017-03-31T02:29:51.051Z,63.99
2017-03-31T02:31:01.393Z,64.09
2017-03-31T02:32:11.729Z,64.05
2017-03-31T02:33:21.755Z,63.99
2017-03-31T02:34:32.087Z,63.96
2017-03-31T02:35:42.421Z,64.09
2017-03-31T02:36:52.443Z,64.05
2017-03-31T02:38:02.492Z,64.05
2017-03-31T02:39:12.825Z,63.96
2017-03-31T02:40:23.172Z,64.05
2017-03-31T02:41:33.510Z,64.18
2017-03-31T02:42:43.853Z,64.05
2017-03-31T02:43:54.207Z,64.24
2017-03-31T02:45:04.251Z,64.43
2017-03-31T02:46:14.586Z,64.24
2017-03-31T02:47:24.933Z,64.24
2017-03-31T02:48:35.259Z,64.24
2017-03-31T02:49:45.308Z,63.96
2017-03-31T02:50:55.642Z,63.96
2017-03-31T02:52:05.993Z,64.05
2017-03-31T02:53:16.011Z,64.15
2017-03-31T02:54:26.348Z,64.24
2017-03-31T02:55:36.702Z,64.05
2017-03-31T02:56:46.730Z,64.43
2017-03-31T02:57:56.774Z,64.05
2017-03-31T02:59:06.500Z,63.96
2017-03-31T03:00:16.826Z,63.96
2017-03-31T03:32:07.611Z,62.81
2017-03-31T03:33:17.923Z,63.2
2017-03-31T03:34:28.255Z,64.05
2017-03-31T03:35:38.577Z,64.53
2017-03-31T03:36:48.898Z,65.19
2017-03-31T03:37:59.226Z,65
2017-03-31T03:39:09.552Z,65.67
2017-03-31T03:40:19.888Z,65.95
2017-03-31T03:41:29.905Z,65.7
2017-03-31T03:42:39.937Z,65.8
2017-03-31T03:43:50.269Z,65.7
2017-03-31T03:45:00.287Z,65.54
2017-03-31T03:46:10.005Z,65.73
2017-03-31T03:47:20.330Z,65.45
2017-03-31T03:48:30.045Z,65.06
2017-03-31T03:49:40.077Z,64.97
2017-03-31T03:50:50.095Z,65
2017-03-31T03:52:00.438Z,65
2017-03-31T03:53:10.780Z,65.19
2017-03-31T03:54:20.514Z,64.81
2017-03-31T03:55:30.534Z,64.72
2017-03-31T03:56:41.113Z,64.84
2017-03-31T03:57:51.446Z,65.03
2017-03-31T03:59:01.781Z,64.47
2017-03-31T04:00:11.495Z,64.56
2017-03-31T04:01:21.215Z,64.08
2017-03-31T04:02:31.550Z,63.99
2017-03-31T04:03:41.560Z,64.18
2017-03-31T04:04:51.882Z,64.21
2017-03-31T04:06:02.218Z,63.83
2017-03-31T04:07:12.249Z,64.21
2017-03-31T04:08:22.585Z,64.12
2017-03-31T04:09:32.913Z,64.02
2017-03-31T04:10:43.258Z,64.31
2017-03-31T04:11:53.600Z,64.4
2017-03-31T04:13:03.933Z,64.31
2017-03-31T04:14:13.961Z,64.12
2017-03-31T04:15:24.286Z,64.12
2017-03-31T04:16:34.306Z,64.02
2017-03-31T04:17:44.640Z,64.12
2017-03-31T04:18:54.984Z,64.21
2017-03-31T04:20:05.008Z,64.4
2017-03-31T04:21:15.344Z,64.21
2017-03-31T04:22:25.369Z,64.21
2017-03-31T04:23:35.708Z,64.12
2017-03-31T04:24:46.039Z,64.31
2017-03-31T04:25:56.064Z,64.21
2017-03-31T04:27:06.403Z,64.21
2017-03-31T04:28:16.454Z,64.12
2017-03-31T04:29:26.469Z,64.21
2017-03-31T04:30:36.812Z,64.31
2017-03-31T04:31:47.160Z,64.31
2017-03-31T04:32:57.187Z,64.21
2017-03-31T04:34:07.114Z,64.15
2017-03-31T04:35:17.454Z,64.34
2017-03-31T04:36:27.791Z,64.34
2017-03-31T04:37:37.817Z,64.05
2017-03-31T04:38:48.162Z,63.96
2017-03-31T04:39:58.186Z,63.86
2017-03-31T04:41:08.210Z,64.15
2017-03-31T04:42:18.559Z,63.76
2017-03-31T04:43:28.883Z,63.76
2017-03-31T04:44:39.221Z,63.48
2017-03-31T04:45:49.561Z,63.96
2017-03-31T04:46:59.897Z,63.86
2017-03-31T04:48:09.613Z,63.76
2017-03-31T04:49:19.636Z,63.96
2017-03-31T04:50:29.968Z,63.57
2017-03-31T04:51:40.297Z,63.48
2017-03-31T04:52:50.626Z,63.57
2017-03-31T04:54:00.962Z,63.32
2017-03-31T04:55:10.674Z,63.76
2017-03-31T04:56:20.705Z,63.8
2017-03-31T04:57:31.025Z,63.42
2017-03-31T04:58:41.356Z,63.8
2017-03-31T04:59:51.369Z,63.99
2017-03-31T05:01:01.705Z,63.23
2017-03-31T05:02:12.055Z,63.6
2017-03-31T05:03:22.080Z,63.6
2017-03-31T05:04:31.798Z,63.07
2017-03-31T05:05:41.830Z,63.07
2017-03-31T05:06:51.836Z,63.16
2017-03-31T05:08:01.858Z,63
2017-03-31T05:09:12.255Z,62.91
2017-03-31T05:10:21.963Z,63.2
2017-03-31T05:11:32.289Z,62.91
2017-03-31T05:12:42.014Z,63.29
2017-03-31T05:13:52.346Z,63.86
2017-03-31T05:15:02.682Z,63.96
2017-03-31T05:16:12.394Z,63.76
2017-03-31T05:17:22.728Z,64.05
2017-03-31T05:18:33.099Z,64.05
2017-03-31T05:19:43.409Z,64.15
2017-03-31T05:20:53.426Z,64.43
2017-03-31T05:22:03.774Z,64.15
2017-03-31T05:23:14.113Z,64.15
2017-03-31T05:24:24.476Z,64.43
2017-03-31T05:25:34.820Z,64.05
2017-03-31T05:26:45.194Z,64.05
2017-03-31T05:27:55.529Z,63.76
2017-03-31T05:29:05.228Z,63.76
2017-03-31T05:30:15.277Z,63.89
2017-03-31T05:31:25.305Z,63.7
2017-03-31T05:32:35.343Z,63.8
2017-03-31T05:33:45.678Z,63.8
2017-03-31T05:34:55.738Z,63.6
2017-03-31T05:36:06.114Z,63.89
2017-03-31T05:37:16.462Z,63.8
2017-03-31T05:38:26.820Z,63.6
2017-03-31T05:39:37.172Z,63.8
2017-03-31T05:40:47.511Z,63.99
2017-03-31T05:41:57.534Z,63.99
2017-03-31T05:43:07.873Z,63.7
2017-03-31T05:44:18.204Z,64.02
2017-03-31T05:45:28.227Z,63.64
2017-03-31T05:46:38.279Z,63.93
2017-03-31T05:47:48.624Z,64.02
2017-03-31T05:48:58.953Z,63.83
2017-03-31T05:50:08.985Z,63.83
2017-03-31T05:51:18.673Z,64.12
2017-03-31T05:52:29.027Z,63.67
2017-03-31T05:53:39.044Z,63.39
2017-03-31T05:54:49.364Z,63.76
2017-03-31T05:55:59.382Z,63.48
2017-03-31T05:57:09.409Z,63.67
2017-03-31T05:58:19.769Z,63.76
2017-03-31T05:59:29.785Z,63.57
2017-03-31T06:00:40.116Z,63.67
2017-03-31T06:01:50.443Z,63.32
2017-03-31T06:03:00.475Z,63.6
2017-03-31T06:04:10.815Z,63.6
2017-03-31T06:05:20.852Z,63.6
2017-03-31T06:06:31.188Z,63.8
2017-03-31T06:07:41.521Z,63.8
2017-03-31T06:08:51.859Z,63.42
2017-03-31T06:10:02.179Z,63.6
2017-03-31T06:11:12.521Z,63.45
2017-03-31T06:12:22.541Z,63.64
2017-03-31T06:13:32.874Z,63.54
2017-03-31T06:14:43.211Z,63.45
2017-03-31T06:15:53.546Z,63.64
2017-03-31T06:17:03.269Z,63.73
2017-03-31T06:18:12.971Z,63.64
2017-03-31T06:19:23.297Z,63.45
2017-03-31T06:20:33.643Z,63.39
2017-03-31T06:21:43.981Z,63.29
2017-03-31T06:22:54.027Z,63.29
2017-03-31T06:24:04.393Z,63.29
2017-03-31T06:25:14.755Z,63.29
2017-03-31T06:26:25.098Z,63.29
2017-03-31T06:27:35.444Z,63.19
2017-03-31T06:28:45.462Z,63.42
2017-03-31T06:29:55.846Z,63.03
2017-03-31T06:31:06.189Z,63.22
2017-03-31T06:32:16.216Z,63.32
2017-03-31T06:33:26.548Z,62.93
2017-03-31T06:34:36.899Z,63.22
2017-03-31T06:35:47.254Z,63.03
2017-03-31T06:36:57.588Z,63.32
2017-03-31T06:38:07.615Z,63.22
2017-03-31T06:39:17.952Z,63.16
2017-03-31T06:40:28.298Z,63.26
2017-03-31T06:41:38.310Z,63.35
2017-03-31T06:42:48.343Z,63.26
2017-03-31T06:43:58.686Z,63.26
2017-03-31T06:45:08.727Z,63.35
2017-03-31T06:46:19.063Z,63.26
2017-03-31T06:47:29.394Z,63.29
2017-03-31T06:48:39.418Z,63.38
2017-03-31T06:49:49.751Z,63.19
2017-03-31T06:50:59.467Z,63.09
2017-03-31T06:52:09.492Z,63.29
2017-03-31T06:53:19.527Z,63.48
2017-03-31T06:54:29.239Z,63.32
2017-03-31T06:55:39.620Z,63.22
2017-03-31T06:56:49.663Z,63.22
2017-03-31T06:57:59.689Z,63.42
2017-03-31T06:59:09.717Z,63.51
2017-03-31T07:00:19.750Z,63.51
2017-03-31T07:01:30.088Z,63.42
2017-03-31T07:02:40.435Z,63.12
2017-03-31T07:03:50.783Z,63.12
2017-03-31T07:05:00.805Z,63.45
2017-03-31T07:06:10.836Z,63.35
2017-03-31T07:07:21.198Z,63.45
2017-03-31T07:08:31.531Z,63.25
2017-03-31T07:09:41.867Z,63.54
2017-03-31T07:10:51.897Z,63.73
2017-03-31T07:12:02.238Z,63.92
2017-03-31T07:13:12.270Z,64.02
2017-03-31T07:14:22.609Z,64.02
2017-03-31T07:15:32.956Z,64.02
2017-03-31T07:16:43.540Z,63.54
2017-03-31T07:17:53.883Z,64.22
2017-03-31T07:19:04.243Z,64.22
2017-03-31T07:20:13.958Z,64.31
2017-03-31T07:21:24.309Z,63.64
2017-03-31T07:22:34.664Z,63.92
2017-03-31T07:23:44.994Z,63.83
2017-03-31T07:24:55.692Z,64.31
2017-03-31T07:26:06.036Z,63.92
2017-03-31T07:27:16.373Z,63.86
2017-03-31T07:28:26.793Z,63.96
2017-03-31T07:29:36.826Z,64.15
2017-03-31T07:30:47.169Z,63.96
2017-03-31T07:31:57.512Z,63.57
2017-03-31T07:33:07.535Z,63.57
2017-03-31T07:34:17.557Z,64.15
2017-03-31T07:35:27.910Z,63.86
2017-03-31T07:36:38.252Z,63.28
2017-03-31T07:37:47.980Z,63.38
2017-03-31T07:38:58.330Z,63.19
2017-03-31T07:40:08.669Z,63.51
2017-03-31T07:41:18.688Z,63.02
2017-03-31T07:42:29.035Z,63.41
2017-03-31T07:43:39.359Z,63.51
2017-03-31T07:44:49.695Z,63.51
2017-03-31T07:45:59.710Z,63.32
2017-03-31T07:47:09.745Z,63.64
2017-03-31T07:48:20.107Z,63.45
2017-03-31T07:49:30.181Z,63.45
2017-03-31T07:50:40.541Z,63.54
2017-03-31T07:51:50.583Z,63.64
2017-03-31T07:53:00.929Z,63.48
2017-03-31T07:54:11.265Z,63.48
2017-03-31T07:55:21.625Z,63.57
2017-03-31T07:56:31.960Z,63.67
2017-03-31T07:57:42.305Z,63.38
2017-03-31T07:58:52.665Z,63.38
2017-03-31T08:00:03.016Z,63.48
2017-03-31T08:01:13.364Z,63.51
2017-03-31T08:02:23.715Z,63.51
2017-03-31T08:03:33.765Z,63.51
2017-03-31T08:04:44.118Z,63.51
2017-03-31T08:05:54.156Z,63.7
2017-03-31T08:07:04.485Z,63.6
2017-03-31T08:08:14.855Z,63.6
2017-03-31T08:09:25.193Z,63.54
2017-03-31T08:10:35.548Z,63.64
2017-03-31T08:11:45.345Z,63.64
2017-03-31T08:12:55.402Z,63.54
2017-03-31T08:14:05.193Z,63.54
2017-03-31T08:15:15.570Z,63.73
2017-03-31T08:16:25.653Z,64.02
2017-03-31T08:17:36.040Z,64.12
2017-03-31T08:18:46.191Z,63.73
2017-03-31T08:19:56.554Z,63.92
2017-03-31T08:21:06.956Z,63.92
2017-03-31T08:22:17.314Z,64.5
2017-03-31T08:23:27.717Z,64.4
2017-03-31T08:24:38.117Z,64.31
2017-03-31T08:25:47.549Z,64.5
2017-03-31T08:26:57.626Z,64.12
2017-03-31T08:28:07.695Z,64.4
2017-03-31T08:29:17.788Z,64.5
2017-03-31T08:30:28.156Z,64.5
2017-03-31T08:31:38.518Z,64.4
2017-03-31T08:32:48.593Z,64.5
2017-03-31T08:33:58.659Z,64.5
2017-03-31T08:35:09.037Z,64.21
2017-03-31T08:36:18.784Z,64.02
2017-03-31T08:37:28.886Z,64.5
2017-03-31T08:38:39.288Z,63.92
2017-03-31T08:39:49.629Z,63.95
2017-03-31T08:41:00.012Z,64.05
2017-03-31T08:42:10.074Z,64.05
2017-03-31T08:43:20.460Z,64.05
2017-03-31T08:44:30.847Z,63.95
2017-03-31T08:45:40.946Z,63.67
2017-03-31T08:46:51.303Z,63.67
2017-03-31T08:48:01.388Z,63.7
2017-03-31T08:49:11.749Z,63.6
2017-03-31T08:50:22.163Z,63.7
2017-03-31T08:51:32.542Z,63.5
2017-03-31T08:52:42.288Z,63.6
2017-03-31T08:53:52.678Z,63.7
2017-03-31T08:55:02.743Z,63.7
2017-03-31T08:56:13.123Z,63.79
2017-03-31T08:57:23.504Z,63.63
2017-03-31T08:58:33.865Z,63.54
2017-03-31T08:59:43.917Z,63.82
2017-03-31T09:00:53.957Z,63.54
2017-03-31T09:02:04.350Z,63.73
2017-03-31T09:03:14.755Z,63.73
2017-03-31T09:04:24.807Z,63.63
2017-03-31T09:05:35.181Z,63.63
2017-03-31T09:06:45.574Z,63.85
2017-03-31T09:07:55.973Z,63.85
2017-03-31T09:09:06.384Z,63.67
2017-03-31T09:10:16.821Z,63.67
2017-03-31T09:11:27.214Z,63.47
2017-03-31T09:12:37.623Z,63.47
2017-03-31T09:13:47.716Z,63.6
2017-03-31T09:14:58.126Z,63.28
2017-03-31T09:16:08.570Z,63.67
2017-03-31T09:17:18.971Z,63.67
2017-03-31T09:18:29.377Z,63.85
2017-03-31T09:19:39.777Z,63.79
2017-03-31T09:20:50.192Z,63.89
2017-03-31T09:22:00.575Z,63.6
2017-03-31T09:23:10.660Z,63.7
2017-03-31T09:24:20.426Z,63.7
2017-03-31T09:25:30.794Z,63.4
2017-03-31T09:26:41.171Z,63.6
2017-03-31T09:27:51.556Z,63.79
2017-03-31T09:29:01.951Z,63.89
2017-03-31T09:30:12.357Z,63.7
2017-03-31T09:31:22.770Z,63.6
2017-03-31T09:32:33.146Z,63.7
2017-03-31T09:33:43.231Z,63.79
2017-03-31T09:34:53.328Z,63.34
2017-03-31T09:36:03.764Z,63.53
2017-03-31T09:37:13.840Z,63.73
2017-03-31T09:38:24.214Z,63.73
2017-03-31T09:39:34.604Z,63.43
2017-03-31T09:40:45.084Z,63.73
2017-03-31T09:41:55.174Z,63.66
2017-03-31T09:43:05.588Z,62.98
2017-03-31T09:44:16.014Z,62.89
2017-03-31T09:45:26.383Z,62.89
2017-03-31T09:46:36.449Z,63.08
2017-03-31T09:47:46.547Z,62.79
2017-03-31T09:48:56.593Z,62.89
2017-03-31T09:50:06.651Z,62.92
2017-03-31T09:51:16.686Z,63.21
2017-03-31T09:52:26.751Z,62.82
2017-03-31T09:53:37.096Z,63.5
2017-03-31T09:54:47.445Z,62.92
2017-03-31T09:55:57.486Z,63.24
2017-03-31T09:57:07.535Z,62.76
2017-03-31T09:58:17.894Z,62.95
2017-03-31T09:59:28.254Z,62.95
2017-03-31T10:00:38.598Z,63.46
2017-03-31T10:01:48.948Z,63.18
2017-03-31T10:02:58.992Z,63.18
2017-03-31T10:04:09.345Z,63.27
2017-03-31T10:05:19.395Z,63.76
2017-03-31T10:06:29.147Z,63.08
2017-03-31T10:07:38.576Z,63.08
2017-03-31T10:08:48.631Z,63.27
2017-03-31T10:09:58.737Z,63.31
2017-03-31T10:11:08.780Z,63.11
2017-03-31T10:12:19.155Z,63.21
2017-03-31T10:13:29.502Z,63.34
2017-03-31T10:14:39.239Z,63.53
2017-03-31T10:15:49.615Z,63.43
2017-03-31T10:16:59.969Z,63.24
2017-03-31T10:18:10.337Z,63.14
2017-03-31T10:19:20.718Z,63.62
2017-03-31T10:20:31.076Z,63.82
2017-03-31T10:21:41.420Z,63.82
2017-03-31T10:22:51.761Z,63.72
2017-03-31T10:24:02.130Z,63.04
2017-03-31T10:25:12.485Z,63.24
2017-03-31T10:26:22.844Z,63.07
2017-03-31T10:27:32.879Z,63.56
2017-03-31T10:28:42.937Z,63.95
2017-03-31T10:29:53.279Z,62.98
2017-03-31T10:31:03.337Z,63.37
2017-03-31T10:32:13.931Z,63.27
2017-03-31T10:33:24.273Z,62.98
2017-03-31T10:34:34.643Z,63.69
2017-03-31T10:35:44.694Z,62.98
2017-03-31T10:36:54.739Z,63.2
2017-03-31T10:38:05.128Z,63.1
2017-03-31T10:39:15.518Z,63.3
2017-03-31T10:40:25.562Z,63.2
2017-03-31T10:41:35.912Z,63.1
2017-03-31T10:42:45.976Z,63.4
2017-03-31T10:43:56.037Z,63.01
2017-03-31T10:45:06.411Z,63.3
2017-03-31T10:46:16.752Z,63.23
2017-03-31T10:47:27.143Z,63.2
2017-03-31T10:48:37.195Z,63.43
2017-03-31T10:49:47.575Z,63.53
2017-03-31T10:50:57.987Z,63.33
2017-03-31T10:52:08.397Z,63.2
2017-03-31T10:53:18.462Z,64.01
2017-03-31T10:54:28.845Z,63.23
2017-03-31T10:55:39.195Z,63.04
2017-03-31T10:56:49.538Z,63.72
2017-03-31T10:57:59.921Z,63.82
2017-03-31T10:59:09.970Z,63.13
2017-03-31T11:00:19.999Z,63.72
2017-03-31T11:01:30.054Z,62.95
2017-03-31T11:02:40.503Z,63.43
2017-03-31T11:03:50.875Z,63.23
2017-03-31T11:05:01.213Z,63.23
2017-03-31T11:06:11.570Z,63.43
2017-03-31T11:07:21.608Z,63.23
2017-03-31T11:08:31.652Z,63.33
2017-03-31T11:09:41.372Z,63.65
2017-03-31T11:10:51.405Z,63.23
2017-03-31T11:12:01.782Z,63.26
2017-03-31T11:13:12.146Z,62.88
2017-03-31T11:14:22.491Z,63.17
2017-03-31T11:15:32.867Z,63.26
2017-03-31T11:16:43.216Z,62.98
2017-03-31T11:17:53.570Z,63.07
2017-03-31T11:19:03.624Z,62.98
2017-03-31T11:20:13.666Z,63.07
2017-03-31T11:21:23.996Z,63.07
2017-03-31T11:22:34.372Z,63.17
2017-03-31T11:23:44.431Z,62.98
2017-03-31T11:24:54.805Z,63.17
2017-03-31T11:26:05.138Z,63.07
2017-03-31T11:27:15.498Z,63.07
2017-03-31T11:28:25.533Z,62.88
2017-03-31T11:29:35.881Z,63.07
2017-03-31T11:30:46.472Z,63.17
2017-03-31T11:31:56.853Z,63.07
2017-03-31T11:33:07.230Z,62.78
2017-03-31T11:34:17.581Z,62.68
2017-03-31T11:35:27.971Z,62.91
2017-03-31T11:36:38.072Z,62.81
2017-03-31T11:37:48.435Z,62.81
2017-03-31T11:38:58.496Z,63.1
2017-03-31T11:40:08.873Z,63.1
2017-03-31T11:41:18.918Z,63.1
2017-03-31T11:42:29.263Z,63.1
2017-03-31T11:43:39.609Z,63.2
2017-03-31T11:44:49.636Z,62.91
2017-03-31T11:46:00.037Z,62.91
2017-03-31T11:47:10.066Z,63.1
2017-03-31T11:48:20.418Z,63.32
2017-03-31T11:49:30.454Z,63.13
2017-03-31T11:50:40.853Z,62.84
2017-03-31T11:51:51.211Z,63.13
2017-03-31T11:53:00.974Z,63.13
2017-03-31T11:54:11.043Z,63.13
2017-03-31T11:55:21.398Z,63.13
2017-03-31T11:56:31.738Z,62.94
2017-03-31T11:57:42.100Z,63.13
2017-03-31T11:58:52.124Z,62.94
2017-03-31T12:00:02.482Z,62.94
2017-03-31T12:01:12.519Z,62.94
2017-03-31T12:02:22.558Z,62.81
2017-03-31T12:03:32.923Z,62.71
2017-03-31T12:04:42.953Z,63.1
2017-03-31T12:05:53.295Z,62.71
2017-03-31T12:07:03.026Z,63.1
2017-03-31T12:08:13.391Z,63.01
2017-03-31T12:09:23.747Z,63.1
2017-03-31T12:10:34.112Z,62.91
2017-03-31T12:11:44.170Z,62.91
2017-03-31T12:12:54.179Z,62.84
2017-03-31T12:14:04.560Z,63.32
2017-03-31T12:15:14.624Z,63.13
2017-03-31T12:16:24.996Z,63.23
2017-03-31T12:17:35.360Z,62.74
2017-03-31T12:18:45.722Z,63.04
2017-03-31T12:19:56.096Z,62.94
2017-03-31T12:21:05.838Z,62.68
2017-03-31T12:22:16.195Z,63.23
2017-03-31T12:23:26.248Z,63.32
2017-03-31T12:24:36.304Z,63.32
2017-03-31T12:25:46.669Z,63.32
2017-03-31T12:26:57.051Z,63.26
2017-03-31T12:28:07.645Z,63.26
2017-03-31T12:29:18.023Z,63.26
2017-03-31T12:30:28.393Z,63.26
2017-03-31T12:31:38.787Z,63.17
2017-03-31T12:32:49.150Z,62.87
2017-03-31T12:33:59.497Z,62.97
2017-03-31T12:35:09.882Z,62.97
2017-03-31T12:36:19.613Z,62.97
2017-03-31T12:37:29.678Z,62.94
2017-03-31T12:38:40.054Z,63.23
2017-03-31T12:39:50.444Z,63.23
2017-03-31T12:41:00.534Z,62.84
2017-03-31T12:42:10.592Z,62.84
2017-03-31T12:43:20.971Z,63.13
2017-03-31T12:44:31.321Z,63.13
2017-03-31T12:45:41.685Z,63.1
2017-03-31T12:46:52.051Z,63.13
2017-03-31T12:48:02.460Z,62.94
2017-03-31T12:49:12.815Z,62.81
2017-03-31T12:50:23.182Z,62.84
2017-03-31T12:51:33.555Z,62.84
2017-03-31T12:52:43.604Z,63.13
2017-03-31T12:53:53.962Z,62.84
2017-03-31T12:55:04.022Z,62.94
2017-03-31T12:56:14.407Z,62.94
2017-03-31T12:57:24.830Z,62.94
2017-03-31T12:58:35.197Z,63.23
2017-03-31T12:59:45.570Z,63.62
2017-03-31T13:00:55.969Z,63.42
2017-03-31T13:02:06.015Z,63.29
2017-03-31T13:03:16.401Z,63.01
2017-03-31T13:04:26.448Z,63.2
2017-03-31T13:05:36.799Z,63.29
2017-03-31T13:06:46.530Z,63.39
2017-03-31T13:07:56.576Z,63.39
2017-03-31T13:09:06.624Z,63.68
2017-03-31T13:10:16.986Z,63.78
2017-03-31T13:11:27.334Z,63.59
2017-03-31T13:12:37.714Z,63.39
2017-03-31T13:13:48.086Z,63.49
2017-03-31T13:14:58.475Z,63.59
2017-03-31T13:16:08.873Z,63.49
2017-03-31T13:17:19.241Z,63.29
2017-03-31T13:18:29.299Z,63.49
2017-03-31T13:19:39.685Z,63.68
2017-03-31T13:20:50.039Z,63.59
2017-03-31T13:21:59.774Z,63.68
2017-03-31T13:23:09.826Z,63.68
2017-03-31T13:24:19.893Z,63.59
2017-03-31T13:25:29.930Z,63.49
2017-03-31T13:26:40.323Z,63.01
2017-03-31T13:27:50.703Z,62.91
2017-03-31T13:29:01.063Z,63.2
2017-03-31T13:30:11.411Z,63.32
2017-03-31T13:31:21.791Z,63.49
2017-03-31T13:32:32.159Z,63.29
2017-03-31T13:33:42.212Z,63.39
2017-03-31T13:34:52.543Z,63.68
2017-03-31T13:36:02.938Z,63.39
2017-03-31T13:37:13.314Z,63.68
2017-03-31T13:38:23.368Z,63.68
2017-03-31T13:39:33.714Z,63.62
2017-03-31T13:40:44.106Z,63.32
2017-03-31T13:41:54.478Z,63.49
2017-03-31T13:43:04.855Z,63.39
2017-03-31T13:44:14.916Z,63.2
2017-03-31T13:45:25.302Z,63.39
2017-03-31T13:46:35.084Z,63.49
2017-03-31T13:47:45.435Z,63.39
2017-03-31T13:48:55.797Z,63.2
2017-03-31T13:50:06.148Z,63.39
2017-03-31T13:51:16.534Z,63.29
2017-03-31T13:52:26.892Z,63.39
2017-03-31T13:53:37.270Z,63.29
2017-03-31T13:54:47.319Z,63.59
2017-03-31T13:55:57.715Z,63.88
2017-03-31T13:57:08.093Z,63.98
2017-03-31T13:58:18.465Z,63.78
2017-03-31T13:59:28.819Z,63.75
2017-03-31T14:00:38.888Z,63.88
2017-03-31T14:01:49.254Z,63.85
2017-03-31T14:02:58.993Z,64.04
2017-03-31T14:04:09.358Z,63.85
2017-03-31T14:05:19.727Z,63.95
2017-03-31T14:06:29.803Z,63.88
2017-03-31T14:07:40.161Z,64.07
2017-03-31T14:08:50.541Z,63.98
2017-03-31T14:10:00.598Z,63.85
2017-03-31T14:11:10.961Z,63.85
2017-03-31T14:12:21.327Z,63.95
2017-03-31T14:13:31.700Z,63.65
2017-03-31T14:14:42.072Z,64.14
2017-03-31T14:15:52.429Z,63.75
2017-03-31T14:17:02.795Z,63.75
2017-03-31T14:18:12.506Z,63.95
2017-03-31T14:19:22.544Z,64.04
2017-03-31T14:20:32.918Z,63.75
2017-03-31T14:21:43.272Z,64.23
2017-03-31T14:22:53.327Z,63.95
2017-03-31T14:24:03.694Z,63.95
2017-03-31T14:25:13.755Z,64.23
2017-03-31T14:26:23.804Z,63.85
2017-03-31T14:27:33.553Z,63.85
2017-03-31T14:28:43.594Z,63.85
2017-03-31T14:29:53.967Z,63.85
2017-03-31T14:31:04.334Z,63.75
2017-03-31T14:32:14.382Z,64.14
2017-03-31T14:33:24.135Z,63.95
2017-03-31T14:34:34.179Z,64.04
2017-03-31T14:35:44.542Z,64.01
2017-03-31T14:36:54.594Z,63.82
2017-03-31T14:38:04.989Z,64.01
2017-03-31T14:39:15.378Z,64.01
2017-03-31T14:40:25.738Z,64.01
2017-03-31T14:41:36.092Z,64.01
2017-03-31T14:42:46.456Z,64.2
2017-03-31T14:43:56.806Z,64.11
2017-03-31T14:45:07.160Z,64.2
2017-03-31T14:46:17.187Z,64.01
2017-03-31T14:47:27.246Z,64.11
2017-03-31T14:48:37.297Z,64.11
2017-03-31T14:49:47.664Z,64.11
2017-03-31T14:50:57.728Z,64.11
2017-03-31T14:52:07.797Z,63.62
2017-03-31T14:53:18.148Z,64.01
2017-03-31T14:54:28.530Z,64.11
2017-03-31T14:55:38.569Z,64.01
2017-03-31T14:56:48.640Z,64.01
2017-03-31T14:57:58.686Z,63.82
2017-03-31T14:59:08.423Z,64.2
2017-03-31T15:00:18.761Z,64.17
2017-03-31T15:01:28.498Z,64.07
2017-03-31T15:02:38.557Z,64.56
2017-03-31T15:03:48.606Z,64.65
2017-03-31T15:04:58.645Z,64.56
2017-03-31T15:06:09.003Z,64.27
2017-03-31T15:07:19.053Z,64.17
2017-03-31T15:08:29.116Z,64.27
2017-03-31T15:09:39.476Z,64.56
2017-03-31T15:10:49.820Z,64.56
2017-03-31T15:11:59.874Z,64.27
2017-03-31T15:13:10.247Z,64.37
2017-03-31T15:14:20.636Z,63.95
2017-03-31T15:15:31.000Z,64.62
2017-03-31T15:16:41.353Z,64.92
2017-03-31T15:17:51.439Z,65.01
2017-03-31T15:19:01.809Z,64.34
2017-03-31T15:20:11.864Z,64.24
2017-03-31T15:21:22.237Z,64.92
2017-03-31T15:22:32.597Z,64.72
2017-03-31T15:23:42.982Z,64.92
2017-03-31T15:24:53.339Z,64.82
2017-03-31T15:26:03.406Z,64.92
2017-03-31T15:27:13.771Z,64.5
2017-03-31T15:28:24.173Z,64.89
2017-03-31T15:29:34.234Z,64.89
2017-03-31T15:30:44.589Z,64.5
2017-03-31T15:31:54.667Z,64.59
2017-03-31T15:33:05.012Z,64.59
2017-03-31T15:34:15.059Z,64.59
2017-03-31T15:35:25.421Z,64.59
2017-03-31T15:36:35.755Z,64.59
2017-03-31T15:37:46.107Z,64.79
2017-03-31T15:38:55.820Z,64.89